createdAt,value
2023-01-19T00:01:00.008Z,97234.81
2023-01-19T00:03:27.420Z,97220.78
2023-01-19T00:05:54.737Z,97228.81
2023-01-19T00:08:22.119Z,97234.88
2023-01-19T00:10:53.287Z,97231.50
2023-01-19T00:13:20.630Z,97233.50
2023-01-19T00:15:47.953Z,97232.88
2023-01-19T00:18:15.330Z,97227.88
2023-01-19T00:20:42.807Z,97232.47
2023-01-19T00:23:09.800Z,97232.25
2023-01-19T00:25:42.522Z,97228.38
2023-01-19T00:28:10.992Z,97220.41
2023-01-19T00:30:39.504Z,97223.91
2023-01-19T00:33:06.933Z,97225.66
2023-01-19T00:35:35.476Z,97231.94
2023-01-19T00:38:03.194Z,97232.19
2023-01-19T00:40:30.524Z,97230.44
2023-01-19T00:42:58.333Z,97245.38
2023-01-19T00:45:25.957Z,97250.56
2023-01-19T00:47:57.069Z,97256.66
2023-01-19T00:50:26.160Z,97249.56
2023-01-19T00:52:54.912Z,97258.78
2023-01-19T00:55:23.141Z,97254.34
2023-01-19T00:57:50.564Z,97244.25
2023-01-19T01:00:19.931Z,97253.63
2023-01-19T01:02:48.013Z,97249.97
2023-01-19T01:05:16.113Z,97253.13
2023-01-19T01:07:47.124Z,97244.09
2023-01-19T01:10:27.311Z,97250.53
2023-01-19T01:12:57.810Z,97259.50
2023-01-19T01:15:27.623Z,97255.09
2023-01-19T01:17:55.311Z,97250.75
2023-01-19T01:20:27.747Z,97255.75
2023-01-19T01:22:56.582Z,97263.28
2023-01-19T01:25:25.695Z,97264.81
2023-01-19T01:27:53.334Z,97258.69
2023-01-19T01:30:21.264Z,97262.72
2023-01-19T01:32:49.011Z,97267.94
2023-01-19T01:35:16.845Z,97255.69
2023-01-19T01:37:44.263Z,97261.94
2023-01-19T01:40:14.639Z,97267.94
2023-01-19T01:42:42.600Z,97262.00
2023-01-19T01:45:30.158Z,97258.47
2023-01-19T01:48:18.854Z,97268.97
2023-01-19T01:51:12.105Z,97262.34
2023-01-19T01:53:40.297Z,97258.25
2023-01-19T01:56:13.065Z,97261.13
2023-01-19T01:58:40.954Z,97271.97
2023-01-19T02:01:29.212Z,97263.50
2023-01-19T02:03:57.433Z,97272.13
2023-01-19T02:06:24.902Z,97276.97
2023-01-19T02:09:21.959Z,97274.81
2023-01-19T02:12:08.187Z,97268.09
2023-01-19T02:14:39.251Z,97274.50
2023-01-19T02:17:07.455Z,97272.13
2023-01-19T02:19:42.208Z,97272.03
2023-01-19T02:22:20.604Z,97270.28
2023-01-19T02:24:49.758Z,97271.31
2023-01-19T02:27:17.770Z,97272.03
2023-01-19T02:29:45.366Z,97269.13
2023-01-19T02:32:12.830Z,97274.06
2023-01-19T02:34:40.261Z,97275.03
2023-01-19T02:37:11.502Z,97279.59
2023-01-19T02:39:54.488Z,97280.44
2023-01-19T02:42:37.388Z,97283.19
2023-01-19T02:45:06.949Z,97278.69
2023-01-19T02:47:46.565Z,97281.53
2023-01-19T02:50:35.839Z,97277.66
2023-01-19T02:53:30.845Z,97286.47
2023-01-19T02:56:24.844Z,97284.94
2023-01-19T02:59:42.781Z,97289.13
2023-01-19T03:03:06.057Z,97283.50
2023-01-19T03:05:53.079Z,97281.53
2023-01-19T03:08:46.906Z,97284.00
2023-01-19T03:11:15.269Z,97284.50
2023-01-19T03:14:01.983Z,97285.44
2023-01-19T03:16:39.808Z,97286.97
2023-01-19T03:19:23.510Z,97280.13
2023-01-19T03:21:57.705Z,97275.38
2023-01-19T03:24:28.685Z,97289.06
2023-01-19T03:27:08.766Z,97291.72
2023-01-19T03:29:37.860Z,97298.28
2023-01-19T03:32:11.827Z,97292.78
2023-01-19T03:34:40.852Z,97299.50
2023-01-19T03:37:08.453Z,97291.50
2023-01-19T03:39:35.743Z,97300.81
2023-01-19T03:42:06.719Z,97296.66
2023-01-19T03:44:37.448Z,97293.38
2023-01-19T03:47:06.043Z,97296.81
2023-01-19T03:49:35.063Z,97302.25
2023-01-19T03:52:02.373Z,97302.03
2023-01-19T03:54:29.852Z,97299.19
2023-01-19T03:56:57.178Z,97310.81
2023-01-19T03:59:24.632Z,97300.84
2023-01-19T04:01:51.992Z,97297.84
2023-01-19T04:04:19.329Z,97306.56
2023-01-19T04:06:46.650Z,97306.44
2023-01-19T04:09:13.953Z,97310.16
2023-01-19T04:11:41.251Z,97301.22
2023-01-19T04:14:08.532Z,97310.16
2023-01-19T04:16:35.965Z,97310.06
2023-01-19T04:19:03.290Z,97306.56
2023-01-19T04:21:30.594Z,97309.03
2023-01-19T04:23:58.979Z,97309.97
2023-01-19T04:26:26.252Z,97300.69
2023-01-19T04:28:53.552Z,97308.50
2023-01-19T04:31:20.986Z,97314.31
2023-01-19T04:33:48.467Z,97308.66
2023-01-19T04:36:15.798Z,97314.09
2023-01-19T04:38:43.121Z,97320.13
2023-01-19T04:41:10.692Z,97317.75
2023-01-19T04:43:38.294Z,97315.63
2023-01-19T04:46:05.744Z,97318.09
2023-01-19T04:48:33.194Z,97320.22
2023-01-19T04:51:00.521Z,97326.50
2023-01-19T04:53:27.854Z,97327.88
2023-01-19T04:55:55.407Z,97329.06
2023-01-19T04:58:22.765Z,97328.47
2023-01-19T05:00:51.227Z,97324.53
2023-01-19T05:03:19.328Z,97322.06
2023-01-19T05:05:46.880Z,97326.50
2023-01-19T05:08:14.246Z,97335.75
2023-01-19T05:10:41.555Z,97326.38
2023-01-19T05:13:08.827Z,97330.97
2023-01-19T05:15:36.096Z,97325.78
2023-01-19T05:18:03.368Z,97333.00
2023-01-19T05:20:30.720Z,97339.09
2023-01-19T05:22:58.642Z,97338.72
2023-01-19T05:25:26.241Z,97344.91
2023-01-19T05:27:53.530Z,97337.69
2023-01-19T05:30:20.825Z,97340.59
2023-01-19T05:32:48.132Z,97342.63
2023-01-19T05:35:20.210Z,97338.66
2023-01-19T05:37:52.379Z,97345.81
2023-01-19T05:40:19.711Z,97346.25
2023-01-19T05:42:46.968Z,97342.53
2023-01-19T05:45:14.256Z,97341.34
2023-01-19T05:47:41.555Z,97349.97
2023-01-19T05:50:09.241Z,97354.75
2023-01-19T05:52:36.558Z,97350.22
2023-01-19T05:55:03.910Z,97356.53
2023-01-19T05:57:31.187Z,97353.06
2023-01-19T05:59:58.518Z,97359.72
2023-01-19T06:02:28.635Z,97368.69
2023-01-19T06:04:56.549Z,97371.00
2023-01-19T06:07:24.577Z,97367.38
2023-01-19T06:09:52.884Z,97375.66
2023-01-19T06:12:20.188Z,97365.28
2023-01-19T06:14:47.459Z,97374.28
2023-01-19T06:17:14.758Z,97373.69
2023-01-19T06:19:42.132Z,97374.47
2023-01-19T06:22:09.580Z,97380.31
2023-01-19T06:24:36.950Z,97373.59
2023-01-19T06:27:04.229Z,97381.59
2023-01-19T06:29:31.484Z,97387.56
2023-01-19T06:31:58.771Z,97382.78
2023-01-19T06:34:28.765Z,97391.34
2023-01-19T06:36:59.108Z,97388.13
2023-01-19T06:39:27.312Z,97385.84
2023-01-19T06:41:54.699Z,97383.16
2023-01-19T06:44:22.000Z,97382.19
2023-01-19T06:46:49.465Z,97391.28
2023-01-19T06:49:16.748Z,97393.03
2023-01-19T06:51:44.051Z,97395.81
2023-01-19T06:54:11.402Z,97397.63
2023-01-19T06:56:38.711Z,97403.84
2023-01-19T06:59:06.272Z,97398.84
2023-01-19T07:01:33.802Z,97408.72
2023-01-19T07:04:01.170Z,97422.47
2023-01-19T07:06:28.521Z,97422.84
2023-01-19T07:08:56.001Z,97420.53
2023-01-19T07:11:30.071Z,97426.28
2023-01-19T07:14:00.484Z,97421.84
2023-01-19T07:16:27.891Z,97426.78
2023-01-19T07:18:55.248Z,97418.19
2023-01-19T07:21:23.047Z,97422.44
2023-01-19T07:23:52.523Z,97407.28
2023-01-19T07:26:21.398Z,97418.84
2023-01-19T07:28:49.392Z,97415.25
2023-01-19T07:31:17.907Z,97416.34
2023-01-19T07:33:45.632Z,97417.97
2023-01-19T07:36:13.708Z,97412.38
2023-01-19T07:38:41.020Z,97413.38
2023-01-19T07:41:09.604Z,97412.38
2023-01-19T07:43:36.954Z,97412.75
2023-01-19T07:46:06.066Z,97410.00
2023-01-19T07:48:33.428Z,97415.41
2023-01-19T07:51:05.186Z,97408.34
2023-01-19T07:53:32.859Z,97415.28
2023-01-19T07:56:00.423Z,97415.91
2023-01-19T07:58:28.048Z,97416.44
2023-01-19T08:00:55.467Z,97414.78
2023-01-19T08:03:23.150Z,97418.88
2023-01-19T08:05:52.027Z,97426.00
2023-01-19T08:08:19.751Z,97417.72
2023-01-19T08:10:50.645Z,97431.69
2023-01-19T08:13:18.460Z,97425.31
2023-01-19T08:15:48.791Z,97423.34
2023-01-19T08:18:16.514Z,97424.34
2023-01-19T08:20:43.965Z,97427.34
2023-01-19T08:23:11.511Z,97440.22
2023-01-19T08:25:44.560Z,97435.34
2023-01-19T08:28:14.103Z,97446.19
2023-01-19T08:30:43.849Z,97438.50
2023-01-19T08:33:12.802Z,97433.91
2023-01-19T08:35:48.912Z,97442.28
2023-01-19T08:38:17.077Z,97434.47
2023-01-19T08:40:44.996Z,97449.53
2023-01-19T08:43:17.251Z,97446.78
2023-01-19T08:45:54.086Z,97450.91
2023-01-19T08:48:23.556Z,97451.84
2023-01-19T08:50:52.067Z,97452.03
2023-01-19T08:53:21.137Z,97448.72
2023-01-19T08:55:48.488Z,97438.16
2023-01-19T08:58:16.108Z,97446.19
2023-01-19T09:00:43.415Z,97442.91
2023-01-19T09:03:13.706Z,97446.72
2023-01-19T09:05:41.861Z,97457.53
2023-01-19T09:08:13.207Z,97461.00
2023-01-19T09:10:49.643Z,97461.88
2023-01-19T09:13:18.462Z,97449.75
2023-01-19T09:15:46.341Z,97445.78
2023-01-19T09:18:17.568Z,97448.78
2023-01-19T09:20:46.609Z,97451.38
2023-01-19T09:23:17.079Z,97453.63
2023-01-19T09:25:46.486Z,97451.25
2023-01-19T09:28:15.775Z,97459.75
2023-01-19T09:30:43.828Z,97454.78
2023-01-19T09:33:15.829Z,97450.53
2023-01-19T09:35:44.192Z,97457.88
2023-01-19T09:38:12.125Z,97459.28
2023-01-19T09:40:59.521Z,97454.91
2023-01-19T09:43:47.754Z,97446.47
2023-01-19T09:46:25.345Z,97447.75
2023-01-19T09:48:54.481Z,97449.88
2023-01-19T09:51:29.845Z,97449.63
2023-01-19T09:54:05.768Z,97456.53
2023-01-19T09:56:33.461Z,97461.34
2023-01-19T09:59:01.212Z,97458.28
2023-01-19T10:01:41.183Z,97455.19
2023-01-19T10:04:21.679Z,97458.72
2023-01-19T10:06:50.015Z,97457.53
2023-01-19T10:09:31.863Z,97452.22
2023-01-19T10:12:17.932Z,97452.63
2023-01-19T10:15:01.566Z,97454.47
2023-01-19T10:17:47.588Z,97455.94
2023-01-19T10:20:24.290Z,97447.22
2023-01-19T10:22:51.810Z,97441.72
2023-01-19T10:25:23.876Z,97454.69
2023-01-19T10:27:51.746Z,97452.28
2023-01-19T10:30:30.157Z,97454.28
2023-01-19T10:32:57.586Z,97447.31
2023-01-19T10:35:25.060Z,97452.41
2023-01-19T10:37:58.976Z,97445.13
2023-01-19T10:40:48.453Z,97436.66
2023-01-19T10:43:47.099Z,97437.44
2023-01-19T10:46:48.035Z,97433.19
2023-01-19T10:49:37.211Z,97435.44
2023-01-19T10:52:07.376Z,97440.72
2023-01-19T10:54:36.294Z,97435.94
2023-01-19T10:57:07.858Z,97426.84
2023-01-19T10:59:47.698Z,97435.22
2023-01-19T11:02:22.309Z,97430.44
2023-01-19T11:04:52.810Z,97416.03
2023-01-19T11:07:35.573Z,97418.81
2023-01-19T11:10:16.309Z,97417.72
2023-01-19T11:13:03.130Z,97421.72
2023-01-19T11:15:43.021Z,97428.72
2023-01-19T11:18:29.771Z,97439.44
2023-01-19T11:21:00.965Z,97440.66
2023-01-19T11:23:34.921Z,97442.22
2023-01-19T11:26:04.610Z,97452.84
2023-01-19T11:28:33.338Z,97451.31
2023-01-19T11:31:19.066Z,97449.53
2023-01-19T11:33:52.596Z,97448.06
2023-01-19T11:36:31.640Z,97443.28
2023-01-19T11:39:04.012Z,97444.75
2023-01-19T11:41:34.783Z,97440.69
2023-01-19T11:44:28.979Z,97440.66
2023-01-19T11:47:21.319Z,97429.38
2023-01-19T11:50:27.185Z,97426.69
2023-01-19T11:53:03.665Z,97419.75
2023-01-19T11:55:57.120Z,97406.88
2023-01-19T11:58:24.757Z,97410.38
2023-01-19T12:00:57.375Z,97411.56
2023-01-19T12:03:41.707Z,97407.09
2023-01-19T12:06:19.121Z,97410.28
2023-01-19T12:08:50.581Z,97405.44
2023-01-19T12:11:21.710Z,97410.72
2023-01-19T12:13:49.861Z,97409.19
2023-01-19T12:16:28.906Z,97410.66
2023-01-19T12:19:05.426Z,97400.84
2023-01-19T12:21:32.737Z,97399.63
2023-01-19T12:24:18.998Z,97401.00
2023-01-19T12:26:59.034Z,97407.47
2023-01-19T12:29:32.852Z,97403.38
2023-01-19T12:32:16.573Z,97416.63
2023-01-19T12:34:48.649Z,97414.66
2023-01-19T12:37:30.917Z,97414.97
2023-01-19T12:40:01.044Z,97425.13
2023-01-19T12:42:28.725Z,97420.13
2023-01-19T12:45:13.589Z,97427.50
2023-01-19T12:47:41.515Z,97422.22
2023-01-19T12:50:14.619Z,97427.28
2023-01-19T12:52:51.319Z,97428.53
2023-01-19T12:55:30.966Z,97433.72
2023-01-19T12:58:07.280Z,97434.28
2023-01-19T13:00:42.766Z,97446.72
2023-01-19T13:03:19.544Z,97443.25
2023-01-19T13:05:56.881Z,97444.22
2023-01-19T13:08:30.396Z,97440.88
2023-01-19T13:11:06.580Z,97434.28
2023-01-19T13:13:37.702Z,97439.56
2023-01-19T13:16:20.545Z,97435.25
2023-01-19T13:18:54.744Z,97441.09
2023-01-19T13:21:44.984Z,97450.69
2023-01-19T13:24:19.196Z,97454.38
2023-01-19T13:26:49.408Z,97443.28
2023-01-19T13:29:33.987Z,97444.81
2023-01-19T13:32:05.105Z,97444.69
2023-01-19T13:34:44.955Z,97455.78
2023-01-19T13:37:35.363Z,97460.75
2023-01-19T13:40:03.269Z,97467.03
2023-01-19T13:42:38.067Z,97462.44
2023-01-19T13:45:22.729Z,97466.13
2023-01-19T13:47:50.827Z,97457.63
2023-01-19T13:50:38.565Z,97465.19
2023-01-19T13:53:18.916Z,97465.56
2023-01-19T13:55:47.894Z,97469.19
2023-01-19T13:58:22.399Z,97460.63
2023-01-19T14:00:50.107Z,97470.25
2023-01-19T14:03:21.327Z,97466.13
2023-01-19T14:05:52.367Z,97464.00
2023-01-19T14:08:20.223Z,97460.19
2023-01-19T14:11:02.192Z,97465.69
2023-01-19T14:13:32.076Z,97466.94
2023-01-19T14:16:04.785Z,97467.34
2023-01-19T14:18:34.359Z,97468.28
2023-01-19T14:21:07.953Z,97461.91
2023-01-19T14:23:40.577Z,97466.69
2023-01-19T14:26:37.098Z,97462.66
2023-01-19T14:29:16.395Z,97463.31
2023-01-19T14:32:09.603Z,97464.59
2023-01-19T14:35:04.011Z,97463.41
2023-01-19T14:37:32.993Z,97467.50
2023-01-19T14:40:04.787Z,97465.69
2023-01-19T14:42:43.116Z,97460.69
2023-01-19T14:45:41.317Z,97462.06
2023-01-19T14:48:20.360Z,97462.88
2023-01-19T14:51:02.497Z,97454.66
2023-01-19T14:53:36.681Z,97457.41
2023-01-19T14:56:05.690Z,97455.38
2023-01-19T14:58:36.362Z,97463.72
2023-01-19T15:01:04.587Z,97462.56
2023-01-19T15:03:44.243Z,97464.19
2023-01-19T15:06:20.158Z,97465.09
2023-01-19T15:08:49.943Z,97470.81
2023-01-19T15:11:27.239Z,97469.03
2023-01-19T15:13:55.481Z,97467.81
2023-01-19T15:16:25.759Z,97466.53
2023-01-19T15:18:53.262Z,97467.13
2023-01-19T15:21:24.750Z,97466.75
2023-01-19T15:23:55.765Z,97470.22
2023-01-19T15:26:25.893Z,97464.88
2023-01-19T15:28:53.678Z,97459.53
2023-01-19T15:31:23.686Z,97453.53
2023-01-19T15:33:51.488Z,97456.00
2023-01-19T15:36:24.205Z,97461.13
2023-01-19T15:38:55.841Z,97456.41
2023-01-19T15:41:23.569Z,97469.97
2023-01-19T15:43:51.328Z,97457.38
2023-01-19T15:46:20.813Z,97462.72
2023-01-19T15:48:49.343Z,97460.78
2023-01-19T15:51:18.907Z,97455.44
2023-01-19T15:53:46.724Z,97454.84
2023-01-19T15:56:15.896Z,97457.50
2023-01-19T15:58:43.886Z,97466.56
2023-01-19T16:01:14.591Z,97459.41
2023-01-19T16:03:42.658Z,97461.22
2023-01-19T16:06:10.319Z,97462.31
2023-01-19T16:08:37.964Z,97465.34
2023-01-19T16:11:11.118Z,97465.19
2023-01-19T16:13:39.315Z,97470.19
2023-01-19T16:16:16.239Z,97465.91
2023-01-19T16:18:43.668Z,97469.19
2023-01-19T16:21:11.182Z,97464.16
2023-01-19T16:23:38.558Z,97464.69
2023-01-19T16:26:08.451Z,97470.91
2023-01-19T16:28:37.120Z,97462.78
2023-01-19T16:31:05.181Z,97469.91
2023-01-19T16:33:32.729Z,97467.69
2023-01-19T16:36:00.105Z,97475.97
2023-01-19T16:38:27.454Z,97475.31
2023-01-19T16:40:54.776Z,97473.50
2023-01-19T16:43:28.344Z,97481.88
2023-01-19T16:46:04.407Z,97475.75
2023-01-19T16:48:32.311Z,97479.31
2023-01-19T16:51:04.527Z,97483.41
2023-01-19T16:53:34.660Z,97475.81
2023-01-19T16:56:09.468Z,97477.91
2023-01-19T16:58:38.344Z,97482.44
2023-01-19T17:01:14.638Z,97487.28
2023-01-19T17:03:42.540Z,97483.41
2023-01-19T17:06:12.164Z,97483.63
2023-01-19T17:08:39.887Z,97483.53
2023-01-19T17:11:13.099Z,97480.03
2023-01-19T17:13:40.484Z,97484.50
2023-01-19T17:16:09.211Z,97492.00
2023-01-19T17:18:37.873Z,97482.44
2023-01-19T17:21:07.197Z,97476.78
2023-01-19T17:23:36.244Z,97480.94
2023-01-19T17:26:04.634Z,97479.41
2023-01-19T17:28:31.964Z,97472.97
2023-01-19T17:31:06.625Z,97467.94
2023-01-19T17:33:34.379Z,97473.69
2023-01-19T17:36:06.837Z,97477.88
2023-01-19T17:38:34.537Z,97476.94
2023-01-19T17:41:01.897Z,97485.84
2023-01-19T17:43:29.330Z,97488.59
2023-01-19T17:45:56.640Z,97479.81
2023-01-19T17:48:23.962Z,97488.31
2023-01-19T17:50:51.331Z,97490.44
2023-01-19T17:53:18.644Z,97488.09
2023-01-19T17:55:45.925Z,97491.38
2023-01-19T17:58:13.267Z,97494.03
2023-01-19T18:00:40.612Z,97495.91
2023-01-19T18:03:07.991Z,97493.97
2023-01-19T18:05:35.352Z,97490.78
2023-01-19T18:08:03.208Z,97488.97
2023-01-19T18:10:30.624Z,97490.75
2023-01-19T18:12:57.889Z,97491.53
2023-01-19T18:15:25.220Z,97489.16
2023-01-19T18:17:52.551Z,97487.88
2023-01-19T18:20:19.958Z,97489.94
2023-01-19T18:22:47.300Z,97495.72
2023-01-19T18:25:14.625Z,97495.31
2023-01-19T18:27:41.923Z,97493.00
2023-01-19T18:30:09.740Z,97494.13
2023-01-19T18:32:37.077Z,97492.44
2023-01-19T18:35:04.725Z,97501.00
2023-01-19T18:37:32.039Z,97495.19
2023-01-19T18:40:02.109Z,97493.09
2023-01-19T18:42:29.453Z,97506.22
2023-01-19T18:44:56.726Z,97502.19
2023-01-19T18:47:24.084Z,97497.22
2023-01-19T18:49:51.370Z,97494.63
2023-01-19T18:52:18.706Z,97489.59
2023-01-19T18:54:47.902Z,97488.81
2023-01-19T18:57:17.741Z,97493.66
2023-01-19T18:59:47.201Z,97506.13
2023-01-19T19:02:14.685Z,97495.72
2023-01-19T19:04:42.027Z,97499.03
2023-01-19T19:07:09.513Z,97495.59
2023-01-19T19:09:37.120Z,97506.53
2023-01-19T19:12:04.682Z,97503.22
2023-01-19T19:14:33.142Z,97499.06
2023-01-19T19:17:00.480Z,97498.94
2023-01-19T19:19:27.834Z,97501.06
2023-01-19T19:21:56.571Z,97505.47
2023-01-19T19:24:23.870Z,97500.69
2023-01-19T19:26:51.140Z,97499.38
2023-01-19T19:29:18.457Z,97505.72
2023-01-19T19:31:46.408Z,97504.97
2023-01-19T19:34:13.733Z,97502.75
2023-01-19T19:36:42.017Z,97506.22
2023-01-19T19:39:09.365Z,97506.75
2023-01-19T19:41:38.283Z,97509.13
2023-01-19T19:44:05.671Z,97504.53
2023-01-19T19:46:33.151Z,97510.69
2023-01-19T19:49:00.562Z,97508.94
2023-01-19T19:51:28.585Z,97508.34
2023-01-19T19:54:00.518Z,97501.88
2023-01-19T19:56:29.718Z,97509.41
2023-01-19T19:58:59.021Z,97507.97
2023-01-19T20:01:33.529Z,97502.63
2023-01-19T20:04:07.640Z,97510.59
2023-01-19T20:06:38.766Z,97513.91
2023-01-19T20:09:08.593Z,97515.03
2023-01-19T20:11:36.452Z,97518.50
2023-01-19T20:14:08.732Z,97521.56
2023-01-19T20:16:36.197Z,97517.09
2023-01-19T20:19:04.413Z,97528.88
2023-01-19T20:21:35.618Z,97525.72
2023-01-19T20:24:05.890Z,97522.53
2023-01-19T20:26:35.316Z,97529.69
2023-01-19T20:29:06.815Z,97528.72
2023-01-19T20:31:37.175Z,97529.22
2023-01-19T20:34:08.591Z,97528.84
2023-01-19T20:36:36.304Z,97527.09
2023-01-19T20:39:10.172Z,97529.56
2023-01-19T20:41:44.847Z,97531.84
2023-01-19T20:44:14.609Z,97535.72
2023-01-19T20:46:41.981Z,97539.88
2023-01-19T20:49:10.108Z,97547.47
2023-01-19T20:51:41.540Z,97543.91
2023-01-19T20:54:10.955Z,97550.50
2023-01-19T20:56:38.712Z,97548.06
2023-01-19T20:59:06.015Z,97546.53
2023-01-19T21:01:33.448Z,97550.63
2023-01-19T21:04:00.857Z,97552.69
2023-01-19T21:06:28.289Z,97552.41
2023-01-19T21:08:55.688Z,97547.00
2023-01-19T21:11:24.006Z,97551.53
2023-01-19T21:13:55.604Z,97553.31
2023-01-19T21:16:25.059Z,97554.81
2023-01-19T21:18:52.733Z,97562.56
2023-01-19T21:21:30.329Z,97562.88
2023-01-19T21:24:00.517Z,97569.63
2023-01-19T21:26:29.766Z,97574.91
2023-01-19T21:28:58.228Z,97571.06
2023-01-19T21:31:27.593Z,97573.31
2023-01-19T21:33:55.856Z,97570.81
2023-01-19T21:36:23.835Z,97577.13
2023-01-19T21:38:52.210Z,97576.47
2023-01-19T21:41:19.631Z,97578.78
2023-01-19T21:43:47.064Z,97581.25
2023-01-19T21:46:22.777Z,97578.69
2023-01-19T21:48:50.080Z,97582.66
2023-01-19T21:51:17.369Z,97580.03
2023-01-19T21:53:44.651Z,97581.00
2023-01-19T21:56:12.179Z,97585.09
2023-01-19T21:58:39.628Z,97577.66
2023-01-19T22:01:13.881Z,97576.16
2023-01-19T22:03:41.825Z,97581.00
2023-01-19T22:06:14.529Z,97579.84
2023-01-19T22:08:42.067Z,97580.38
2023-01-19T22:11:11.557Z,97582.59
2023-01-19T22:13:39.216Z,97585.25
2023-01-19T22:16:14.819Z,97593.47
2023-01-19T22:18:44.079Z,97590.22
2023-01-19T22:21:14.238Z,97592.41
2023-01-19T22:23:42.147Z,97588.53
2023-01-19T22:26:11.275Z,97600.22
2023-01-19T22:28:38.587Z,97602.16
2023-01-19T22:31:08.359Z,97600.88
2023-01-19T22:33:36.328Z,97607.06
2023-01-19T22:36:18.869Z,97607.28
2023-01-19T22:38:56.399Z,97597.16
2023-01-19T22:41:25.286Z,97597.38
2023-01-19T22:43:55.724Z,97604.84
2023-01-19T22:46:26.855Z,97605.69
2023-01-19T22:48:54.574Z,97606.09
2023-01-19T22:51:22.683Z,97602.34
2023-01-19T22:53:50.160Z,97604.28
2023-01-19T22:56:19.684Z,97602.75
2023-01-19T22:58:47.337Z,97606.59
2023-01-19T23:01:20.201Z,97604.84
2023-01-19T23:03:47.771Z,97607.25
2023-01-19T23:06:38.287Z,97599.25
2023-01-19T23:09:14.099Z,97609.81
2023-01-19T23:11:43.552Z,97608.44
2023-01-19T23:14:15.148Z,97606.50
2023-01-19T23:16:42.493Z,97606.41
2023-01-19T23:19:12.153Z,97603.78
2023-01-19T23:21:39.569Z,97610.94
2023-01-19T23:24:07.041Z,97608.44
2023-01-19T23:26:38.164Z,97603.75
2023-01-19T23:29:14.843Z,97605.78
2023-01-19T23:31:47.804Z,97607.88
2023-01-19T23:34:15.946Z,97609.28
2023-01-19T23:36:43.816Z,97608.13
2023-01-19T23:39:20.907Z,97611.94
2023-01-19T23:41:48.743Z,97609.69
2023-01-19T23:44:16.979Z,97609.16
2023-01-19T23:46:44.713Z,97616.41
2023-01-19T23:49:13.298Z,97618.31
2023-01-19T23:51:40.878Z,97628.91
2023-01-19T23:54:08.514Z,97622.22
2023-01-19T23:56:38.030Z,97634.44
2023-01-19T23:59:07.716Z,97637.03
